Terminal Aerodrome Forecast
Issued by NWS Charleston, WV

Current Version | Previous Version | Graphics & Text | Print | Product List | Glossary On
Versions: 1 2 3 4 5 6 7 8 9 10 11 12 13 14 15 16 17 18 19 20 21 22 23 24 25 26 27 28
000
FTUS41 KRLX 241100
TAFPKB
TAF
KPKB 241120Z 2412/2512 00000KT 1/4SM FG VV001
      TEMPO 2412/2413 2SM BR BKN002
     FM241300 00000KT 3SM BR BKN002
      TEMPO 2413/2414 6SM BR SCT003
     FM241400 00000KT P6SM BKN200
     FM250700 00000KT P6SM SCT035=

USA.gov is the U.S. government's official web portal to all federal, state and local government web resources and services.